Time;durP1;ratioP1;P1;durP2;ratioP2;P2;SDS_P1;SDS_P2;PMS_P1;PMS_P2;Temp;Humidity;BMP_temperature;BMP_pressure;BME280_temperature;BME280_humidity;BME280_pressure;Samples;Min_cycle;Max_cycle;Signal;HPM_P1;HPM_P2
2024/03/12 00:01:45;;;;;;;74.15;29.50;;;;;;;;;;4995704;28;20210;-88
2024/03/12 00:04:11;;;;;;;81.20;35.20;;;;;;;;;;4996363;28;20199;-89
2024/03/12 00:06:37;;;;;;;75.55;33.90;;;;;;;;;;4994607;28;20246;-87
2024/03/12 00:09:09;;;;;;;80.40;34.40;;;;;;;;;;4995168;28;20191;-88
2024/03/12 00:11:35;;;;;;;70.20;30.83;;;;;;;;;;4995591;28;20258;-88
2024/03/12 00:14:01;;;;;;;78.28;30.98;;;;;;;;;;4996686;28;20214;-88
2024/03/12 00:16:28;;;;;;;76.18;31.60;;;;;;;;;;4995106;28;20179;-88
2024/03/12 00:18:55;;;;;;;85.65;32.75;;;;;;;;;;4996297;28;20171;-89
2024/03/12 00:21:21;;;;;;;79.45;31.17;;;;;;;;;;4994765;28;20522;-89
2024/03/12 00:23:48;;;;;;;73.22;33.00;;;;;;;;;;4963047;28;20274;-89
2024/03/12 00:26:20;;;;;;;72.90;31.27;;;;;;;;;;4963245;28;20628;-89
2024/03/12 00:28:47;;;;;;;75.50;33.38;;;;;;;;;;4994797;28;20191;-90
2024/03/12 00:31:13;;;;;;;95.18;36.08;;;;;;;;;;4979031;28;20179;-89
2024/03/12 00:33:42;;;;;;;94.00;37.95;;;;;;;;;;4996362;28;20184;-89
2024/03/12 00:36:08;;;;;;;90.28;35.53;;;;;;;;;;4979537;28;20520;-89
2024/03/12 00:38:34;;;;;;;82.82;38.33;;;;;;;;;;4978454;28;20187;-89
2024/03/12 00:41:00;;;;;;;90.73;38.37;;;;;;;;;;4978913;28;20181;-89
2024/03/12 00:43:26;;;;;;;91.50;35.77;;;;;;;;;;4978127;28;20438;-91
2024/03/12 00:45:53;;;;;;;95.70;39.63;;;;;;;;;;4963118;28;20423;-89
2024/03/12 00:48:19;;;;;;;98.25;37.88;;;;;;;;;;4962505;28;20218;-89
2024/03/12 00:50:46;;;;;;;107.72;42.53;;;;;;;;;;4994970;28;20194;-88
2024/03/12 00:53:13;;;;;;;98.05;41.58;;;;;;;;;;4978750;28;20179;-86
2024/03/12 00:55:40;;;;;;;110.53;45.83;;;;;;;;;;4994534;28;20234;-88
2024/03/12 00:58:07;;;;;;;119.20;46.83;;;;;;;;;;4995395;28;20175;-88
2024/03/12 01:00:33;;;;;;;115.70;43.83;;;;;;;;;;4961903;28;20655;-88
2024/03/12 01:03:00;;;;;;;94.37;38.67;;;;;;;;;;4994673;28;20179;-87
2024/03/12 01:05:31;;;;;;;123.80;45.38;;;;;;;;;;4995527;28;20419;-90
2024/03/12 01:07:58;;;;;;;114.07;44.20;;;;;;;;;;4994794;28;20216;-90
2024/03/12 01:10:26;;;;;;;121.38;43.67;;;;;;;;;;4994521;28;20179;-91
2024/03/12 01:12:53;;;;;;;119.00;46.22;;;;;;;;;;4964030;28;20190;-91
2024/03/12 01:15:19;;;;;;;112.82;44.60;;;;;;;;;;4978471;28;20179;-90
2024/03/12 01:17:47;;;;;;;122.10;49.65;;;;;;;;;;4978568;28;20194;-91
2024/03/12 01:20:16;;;;;;;120.07;47.50;;;;;;;;;;4978772;28;20246;-91
2024/03/12 01:22:42;;;;;;;130.45;49.67;;;;;;;;;;4978599;28;20175;-92
2024/03/12 01:25:09;;;;;;;132.82;55.22;;;;;;;;;;4980044;28;20175;-92
2024/03/12 01:27:36;;;;;;;139.63;53.95;;;;;;;;;;4978787;28;20542;-91
2024/03/12 01:30:14;;;;;;;138.45;53.22;;;;;;;;;;4979061;28;20250;-91
2024/03/12 01:32:51;;;;;;;121.13;46.78;;;;;;;;;;4994948;28;20194;-90
2024/03/12 01:35:20;;;;;;;136.65;52.38;;;;;;;;;;4996624;28;20171;-92
2024/03/12 01:37:49;;;;;;;123.72;49.33;;;;;;;;;;4979673;28;20183;-92
2024/03/12 01:40:23;;;;;;;121.22;50.63;;;;;;;;;;4996147;28;20178;-91
2024/03/12 01:42:57;;;;;;;137.55;52.72;;;;;;;;;;4997597;28;20175;-92
2024/03/12 01:45:24;;;;;;;140.75;54.90;;;;;;;;;;4995022;28;20200;-91
2024/03/12 01:47:50;;;;;;;137.30;56.53;;;;;;;;;;4963220;28;20619;-90
2024/03/12 01:50:19;;;;;;;135.70;51.30;;;;;;;;;;4962211;28;20181;-89
2024/03/12 01:52:46;;;;;;;145.95;54.88;;;;;;;;;;4962945;28;20410;-90
2024/03/12 01:55:12;;;;;;;132.93;52.65;;;;;;;;;;4995063;28;20215;-90
2024/03/12 01:57:51;;;;;;;125.88;50.97;;;;;;;;;;4962098;28;20191;-90
2024/03/12 02:00:17;;;;;;;113.53;48.65;;;;;;;;;;4978594;28;20210;-92
2024/03/12 02:02:44;;;;;;;137.13;55.03;;;;;;;;;;4978219;28;20176;-90
2024/03/12 02:05:10;;;;;;;124.32;50.83;;;;;;;;;;4977422;28;20212;-91
2024/03/12 02:07:46;;;;;;;125.38;49.22;;;;;;;;;;4977879;28;20245;-90
2024/03/12 02:10:15;;;;;;;125.00;45.55;;;;;;;;;;4993811;28;20178;-91
2024/03/12 02:12:45;;;;;;;118.53;48.97;;;;;;;;;;4995861;28;20189;-91
2024/03/12 02:15:12;;;;;;;117.57;47.92;;;;;;;;;;4994527;28;20706;-89
2024/03/12 02:17:39;;;;;;;109.05;45.53;;;;;;;;;;4978199;28;20179;-90
2024/03/12 02:20:08;;;;;;;110.70;48.58;;;;;;;;;;4993750;28;20175;-90
2024/03/12 02:22:35;;;;;;;98.32;42.28;;;;;;;;;;4978145;28;20184;-89
2024/03/12 02:25:03;;;;;;;119.57;46.42;;;;;;;;;;4995275;28;20171;-91
2024/03/12 02:27:29;;;;;;;115.55;45.67;;;;;;;;;;4961465;28;20686;-91
2024/03/12 02:29:55;;;;;;;113.63;45.58;;;;;;;;;;4993603;28;20179;-90
2024/03/12 02:32:25;;;;;;;113.75;43.65;;;;;;;;;;4993822;28;20182;-91
2024/03/12 02:34:51;;;;;;;94.13;38.85;;;;;;;;;;4996819;28;20183;-89
2024/03/12 02:37:17;;;;;;;92.90;42.03;;;;;;;;;;4997919;28;20233;-91
2024/03/12 02:39:44;;;;;;;106.45;41.70;;;;;;;;;;4996961;28;20623;-89
2024/03/12 02:42:11;;;;;;;97.10;39.88;;;;;;;;;;4990909;28;20179;-91
2024/03/12 02:44:37;;;;;;;90.88;38.85;;;;;;;;;;4994441;28;20243;-90
2024/03/12 02:47:03;;;;;;;97.33;40.20;;;;;;;;;;4978265;28;20291;-91
2024/03/12 02:49:29;;;;;;;98.03;37.97;;;;;;;;;;4977620;28;20450;-91
2024/03/12 02:51:55;;;;;;;85.60;39.05;;;;;;;;;;4994150;28;20197;-91
2024/03/12 02:54:22;;;;;;;88.10;37.42;;;;;;;;;;4994284;28;20176;-89
2024/03/12 02:56:48;;;;;;;83.80;35.28;;;;;;;;;;4979533;28;20184;-89
2024/03/12 02:59:14;;;;;;;92.13;38.35;;;;;;;;;;4997361;28;20179;-89
2024/03/12 03:01:41;;;;;;;79.18;38.05;;;;;;;;;;4998171;28;20178;-89
2024/03/12 03:04:08;;;;;;;86.70;38.80;;;;;;;;;;4980944;28;20185;-90
2024/03/12 03:06:34;;;;;;;86.75;40.15;;;;;;;;;;4984616;28;20235;-90
2024/03/12 03:09:00;;;;;;;89.35;38.72;;;;;;;;;;4980502;28;20207;-90
2024/03/12 03:11:26;;;;;;;87.30;36.20;;;;;;;;;;4980726;28;20178;-90
2024/03/12 03:13:52;;;;;;;86.55;35.35;;;;;;;;;;4997401;28;20219;-89
2024/03/12 03:16:20;;;;;;;84.70;35.30;;;;;;;;;;4980792;28;20601;-86
2024/03/12 03:18:46;;;;;;;84.15;37.30;;;;;;;;;;4997983;28;20462;-90
2024/03/12 03:21:12;;;;;;;84.45;34.97;;;;;;;;;;4997589;28;20185;-91
2024/03/12 03:23:42;;;;;;;73.63;36.83;;;;;;;;;;4980542;28;20620;-89
2024/03/12 03:26:08;;;;;;;77.50;35.10;;;;;;;;;;4980517;28;20928;-90
2024/03/12 03:28:34;;;;;;;64.82;33.53;;;;;;;;;;4980435;28;20231;-90
2024/03/12 03:31:00;;;;;;;74.00;32.70;;;;;;;;;;4980406;28;20288;-90
2024/03/12 03:33:27;;;;;;;74.43;34.20;;;;;;;;;;4980675;28;20470;-91
2024/03/12 03:35:53;;;;;;;73.13;35.72;;;;;;;;;;4998194;28;20407;-91
2024/03/12 03:38:21;;;;;;;66.55;34.08;;;;;;;;;;4980847;28;20187;-90
2024/03/12 03:40:47;;;;;;;67.68;31.10;;;;;;;;;;4980204;28;20552;-91
2024/03/12 03:43:13;;;;;;;67.88;32.58;;;;;;;;;;4980755;28;20556;-91
2024/03/12 03:45:39;;;;;;;69.57;31.85;;;;;;;;;;4979871;28;20183;-90
2024/03/12 03:48:06;;;;;;;66.32;32.13;;;;;;;;;;4980218;28;20286;-90
2024/03/12 03:50:32;;;;;;;65.10;30.95;;;;;;;;;;4979648;28;20199;-90
2024/03/12 03:52:58;;;;;;;55.97;29.40;;;;;;;;;;4974286;28;20668;-91
2024/03/12 03:55:24;;;;;;;54.63;26.27;;;;;;;;;;4981711;28;20425;-91
2024/03/12 03:57:50;;;;;;;61.60;28.07;;;;;;;;;;4996433;28;20476;-91
2024/03/12 04:00:23;;;;;;;57.33;27.83;;;;;;;;;;4995941;28;20415;-91
2024/03/12 04:02:49;;;;;;;60.05;26.08;;;;;;;;;;4979530;28;20167;-90
2024/03/12 04:05:15;;;;;;;59.47;27.88;;;;;;;;;;4979433;28;20226;-92
2024/03/12 04:07:41;;;;;;;54.50;27.45;;;;;;;;;;4978830;28;20239;-90
2024/03/12 04:10:10;;;;;;;66.00;31.42;;;;;;;;;;4980270;28;20189;-91
2024/03/12 04:12:42;;;;;;;60.10;30.55;;;;;;;;;;4979506;28;20183;-91
2024/03/12 04:15:09;;;;;;;74.78;33.60;;;;;;;;;;4994549;28;20171;-91
2024/03/12 04:17:37;;;;;;;67.55;32.63;;;;;;;;;;4996545;28;20757;-89
2024/03/12 04:20:05;;;;;;;76.63;36.85;;;;;;;;;;4973263;28;20188;-90
2024/03/12 04:22:31;;;;;;;62.15;31.98;;;;;;;;;;4981762;28;20207;-92
2024/03/12 04:24:57;;;;;;;70.45;27.27;;;;;;;;;;4981830;28;20274;-92
2024/03/12 04:27:23;;;;;;;67.37;33.73;;;;;;;;;;4997172;28;20255;-88
2024/03/12 04:29:49;;;;;;;77.23;32.70;;;;;;;;;;4980825;28;20874;-91
2024/03/12 04:32:15;;;;;;;66.07;32.55;;;;;;;;;;4998076;28;20497;-93
2024/03/12 04:34:41;;;;;;;66.70;31.40;;;;;;;;;;4979723;28;20207;-91
2024/03/12 04:37:07;;;;;;;61.27;31.27;;;;;;;;;;4993524;28;20430;-90
2024/03/12 04:39:34;;;;;;;63.87;27.20;;;;;;;;;;4977421;28;20415;-91
2024/03/12 04:42:02;;;;;;;59.70;29.75;;;;;;;;;;4961893;28;20483;-91
2024/03/12 04:44:28;;;;;;;77.05;30.95;;;;;;;;;;4994717;28;20522;-89
2024/03/12 04:46:54;;;;;;;75.35;32.30;;;;;;;;;;4981883;28;20207;-90
2024/03/12 04:49:20;;;;;;;52.90;22.83;;;;;;;;;;4995684;28;20225;-92
2024/03/12 04:51:46;;;;;;;78.10;31.83;;;;;;;;;;4997054;28;20405;-91
2024/03/12 04:54:12;;;;;;;64.28;29.80;;;;;;;;;;4976839;28;20241;-92
2024/03/12 04:56:38;;;;;;;65.45;30.15;;;;;;;;;;4960350;28;20633;-90
2024/03/12 04:59:04;;;;;;;69.03;29.60;;;;;;;;;;5006798;28;20236;-93
2024/03/12 05:01:30;;;;;;;63.20;29.40;;;;;;;;;;5016649;28;20874;-94
2024/03/12 05:03:56;;;;;;;75.63;32.03;;;;;;;;;;4966053;28;20428;-92
2024/03/12 05:06:23;;;;;;;64.43;29.80;;;;;;;;;;4980103;28;20517;-93
2024/03/12 05:08:49;;;;;;;71.32;31.33;;;;;;;;;;4997564;28;20974;-92
2024/03/12 05:11:15;;;;;;;69.95;30.42;;;;;;;;;;4995941;28;20187;-92
2024/03/12 05:13:41;;;;;;;63.22;31.27;;;;;;;;;;4993604;28;20189;-92
2024/03/12 05:16:07;;;;;;;75.97;30.23;;;;;;;;;;5001054;28;20242;-93
2024/03/12 05:18:33;;;;;;;56.03;28.55;;;;;;;;;;5008677;28;20198;-90
2024/03/12 05:20:59;;;;;;;69.03;31.85;;;;;;;;;;4983616;28;20250;-93
2024/03/12 05:23:25;;;;;;;64.33;31.63;;;;;;;;;;4982170;28;20214;-93
2024/03/12 05:25:51;;;;;;;65.97;32.15;;;;;;;;;;4998899;28;20410;-91
2024/03/12 05:28:19;;;;;;;63.60;29.67;;;;;;;;;;5015371;28;20284;-93
2024/03/12 05:30:45;;;;;;;65.15;31.65;;;;;;;;;;4983328;28;20187;-93
2024/03/12 05:33:15;;;;;;;68.93;30.52;;;;;;;;;;5016984;28;20182;-93
2024/03/12 05:35:52;;;;;;;65.55;29.75;;;;;;;;;;5001159;28;20239;-92
2024/03/12 05:49:09;;;;;;;76.20;32.08;;;;;;;;;;4996640;28;20663;-90
2024/03/12 05:51:37;;;;;;;73.28;31.90;;;;;;;;;;4996213;28;20175;-93
2024/03/12 05:54:05;;;;;;;60.58;28.02;;;;;;;;;;4980306;28;20180;-92
2024/03/12 05:56:31;;;;;;;70.90;29.73;;;;;;;;;;4992427;28;20276;-92
2024/03/12 05:58:58;;;;;;;64.90;29.80;;;;;;;;;;4976355;28;20184;-92
2024/03/12 06:01:24;;;;;;;67.40;27.13;;;;;;;;;;4993638;28;20239;-92
2024/03/12 06:03:50;;;;;;;64.00;31.67;;;;;;;;;;4974514;28;20190;-91
2024/03/12 06:06:17;;;;;;;73.63;30.00;;;;;;;;;;4995743;28;20463;-90
2024/03/12 06:08:44;;;;;;;73.45;29.00;;;;;;;;;;4979511;28;20247;-91
2024/03/12 06:11:12;;;;;;;67.13;29.48;;;;;;;;;;4995721;28;20551;-91
2024/03/12 06:13:38;;;;;;;70.30;30.63;;;;;;;;;;4996563;28;20518;-93
2024/03/12 06:16:05;;;;;;;62.15;31.02;;;;;;;;;;4998351;28;20346;-90
2024/03/12 06:18:31;;;;;;;68.22;28.95;;;;;;;;;;4997258;28;20187;-90
2024/03/12 06:20:57;;;;;;;63.17;28.30;;;;;;;;;;4997702;28;20182;-90
2024/03/12 06:23:25;;;;;;;62.10;28.10;;;;;;;;;;4996358;28;20184;-93
2024/03/12 06:25:51;;;;;;;57.72;26.23;;;;;;;;;;4993879;28;20266;-91
2024/03/12 06:28:20;;;;;;;61.30;29.47;;;;;;;;;;4994111;28;20644;-91
2024/03/12 06:30:46;;;;;;;66.50;27.45;;;;;;;;;;4983535;28;20423;-90
2024/03/12 06:33:17;;;;;;;66.10;29.50;;;;;;;;;;4985856;28;20179;-92
2024/03/12 06:35:42;;;;;;;59.58;28.25;;;;;;;;;;5001802;28;20201;-90
2024/03/12 06:38:08;;;;;;;61.97;28.23;;;;;;;;;;4985861;28;20198;-90
2024/03/12 06:40:34;;;;;;;62.05;25.95;;;;;;;;;;4982485;28;20456;-91
2024/03/12 06:43:01;;;;;;;60.10;30.88;;;;;;;;;;4998280;28;20584;-89
2024/03/12 06:45:27;;;;;;;57.20;28.70;;;;;;;;;;4981319;28;20191;-90
2024/03/12 06:47:55;;;;;;;60.55;29.13;;;;;;;;;;4997037;28;20225;-90
2024/03/12 06:50:25;;;;;;;59.88;28.65;;;;;;;;;;4981847;28;20544;-89
2024/03/12 06:52:51;;;;;;;65.28;27.63;;;;;;;;;;4981179;28;20175;-91
2024/03/12 06:55:23;;;;;;;64.47;28.60;;;;;;;;;;4981507;28;20187;-91
2024/03/12 06:57:51;;;;;;;55.97;27.83;;;;;;;;;;4980750;28;20172;-90
2024/03/12 07:00:31;;;;;;;53.13;22.67;;;;;;;;;;4997945;28;20178;-91
2024/03/12 07:02:57;;;;;;;51.95;26.00;;;;;;;;;;4997579;28;20186;-90
2024/03/12 07:05:26;;;;;;;55.22;27.95;;;;;;;;;;4999435;28;20211;-90
2024/03/12 07:07:53;;;;;;;54.33;24.67;;;;;;;;;;4997007;28;20818;-91
2024/03/12 07:10:22;;;;;;;54.35;27.52;;;;;;;;;;4981468;28;20190;-92
2024/03/12 07:12:48;;;;;;;53.58;26.40;;;;;;;;;;4981450;28;20510;-89
2024/03/12 07:15:16;;;;;;;64.73;28.87;;;;;;;;;;4998290;28;20172;-91
2024/03/12 07:17:42;;;;;;;62.22;29.80;;;;;;;;;;4997018;28;20441;-90
2024/03/12 07:20:11;;;;;;;56.08;27.40;;;;;;;;;;4998109;28;20180;-90
2024/03/12 07:22:42;;;;;;;65.55;29.55;;;;;;;;;;5001187;28;20277;-91
2024/03/12 07:25:10;;;;;;;69.18;27.67;;;;;;;;;;5018671;28;20604;-91
2024/03/12 07:27:36;;;;;;;60.08;28.02;;;;;;;;;;5303410;23;20204;-91
2024/03/12 07:32:52;;;;;;;60.63;26.20;;;;;;;;;;5457591;23;20217;31
2024/03/12 07:35:18;;;;;;;62.35;27.95;;;;;;;;;;4977360;28;20263;-90
2024/03/12 07:37:45;;;;;;;49.50;25.33;;;;;;;;;;4947745;28;20184;-91
2024/03/12 07:40:18;;;;;;;61.90;28.30;;;;;;;;;;4961144;28;20194;-89
2024/03/12 07:42:44;;;;;;;69.82;28.83;;;;;;;;;;4977325;28;20172;-89
2024/03/12 07:45:11;;;;;;;63.03;29.17;;;;;;;;;;4977899;28;20176;-90
2024/03/12 07:47:40;;;;;;;57.67;26.70;;;;;;;;;;4981054;28;20222;-89
2024/03/12 07:50:11;;;;;;;66.60;28.58;;;;;;;;;;4976994;28;20199;-89
2024/03/12 07:52:37;;;;;;;61.25;28.35;;;;;;;;;;4958256;28;20185;-91
2024/03/12 07:55:03;;;;;;;66.82;28.58;;;;;;;;;;4966359;28;20195;-87
2024/03/12 07:57:32;;;;;;;46.03;25.00;;;;;;;;;;4977281;28;20187;-90
2024/03/12 07:59:59;;;;;;;47.13;25.75;;;;;;;;;;4977514;28;20181;-89
2024/03/12 08:02:25;;;;;;;48.40;25.00;;;;;;;;;;4977545;28;20188;-90
2024/03/12 08:04:51;;;;;;;52.35;28.63;;;;;;;;;;4960471;28;20584;-88
2024/03/12 08:07:19;;;;;;;57.42;28.83;;;;;;;;;;4978426;28;20556;-89
2024/03/12 08:09:47;;;;;;;48.17;25.52;;;;;;;;;;4960127;28;20203;-88
2024/03/12 08:12:13;;;;;;;52.05;24.75;;;;;;;;;;4977833;28;20725;-90
2024/03/12 08:14:43;;;;;;;52.20;26.60;;;;;;;;;;4961411;28;20188;-90
2024/03/12 08:17:11;;;;;;;48.13;23.63;;;;;;;;;;4995557;28;20211;-89
2024/03/12 08:19:38;;;;;;;49.35;27.10;;;;;;;;;;4979426;28;20274;-88
2024/03/12 08:22:04;;;;;;;49.53;23.50;;;;;;;;;;4996453;28;20222;-90
2024/03/12 08:24:30;;;;;;;50.47;25.83;;;;;;;;;;4979552;28;20429;-91
2024/03/12 08:26:59;;;;;;;43.47;23.10;;;;;;;;;;4953815;28;20675;-92
2024/03/12 08:29:26;;;;;;;48.33;25.48;;;;;;;;;;4982072;28;20278;-93
2024/03/12 08:31:53;;;;;;;47.88;23.83;;;;;;;;;;4981011;28;20214;-92
2024/03/12 08:34:19;;;;;;;51.88;26.88;;;;;;;;;;4998553;28;20645;-92
2024/03/12 08:36:46;;;;;;;44.97;22.73;;;;;;;;;;4980253;28;20176;-84
2024/03/12 08:39:12;;;;;;;41.70;23.40;;;;;;;;;;4975891;28;20417;-84
2024/03/12 08:41:41;;;;;;;39.53;22.83;;;;;;;;;;4998056;28;20635;-84
2024/03/12 08:44:08;;;;;;;42.05;23.60;;;;;;;;;;4996873;28;20245;-83
2024/03/12 08:46:34;;;;;;;42.55;21.33;;;;;;;;;;4979858;28;20187;-83
2024/03/12 08:49:00;;;;;;;38.08;23.33;;;;;;;;;;4976319;28;20192;-83
2024/03/12 08:51:33;;;;;;;38.75;22.40;;;;;;;;;;4977098;28;20220;-83
2024/03/12 08:53:59;;;;;;;41.70;22.40;;;;;;;;;;4976277;28;20186;-84
2024/03/12 08:56:25;;;;;;;37.00;21.63;;;;;;;;;;4976196;28;20191;-84
2024/03/12 08:58:51;;;;;;;35.83;21.33;;;;;;;;;;4977235;28;20415;-83
2024/03/12 09:01:18;;;;;;;32.08;20.55;;;;;;;;;;4959723;28;20479;-83
2024/03/12 09:03:44;;;;;;;33.33;20.75;;;;;;;;;;4975776;28;20230;-83
2024/03/12 09:06:11;;;;;;;35.83;19.98;;;;;;;;;;4964286;28;20261;-83
2024/03/12 09:08:39;;;;;;;31.55;19.90;;;;;;;;;;4957758;29;20200;-83
2024/03/12 09:11:05;;;;;;;35.85;19.05;;;;;;;;;;4957735;29;20200;-83
2024/03/12 09:13:31;;;;;;;35.23;19.27;;;;;;;;;;4957457;29;20671;-83
2024/03/12 09:15:57;;;;;;;32.30;19.02;;;;;;;;;;4958097;29;20413;-83
2024/03/12 09:18:23;;;;;;;32.83;18.70;;;;;;;;;;4957779;29;20180;-82
2024/03/12 09:20:49;;;;;;;31.23;18.25;;;;;;;;;;4990534;28;20183;-82
2024/03/12 09:23:18;;;;;;;31.67;19.55;;;;;;;;;;4995893;28;20185;-83
2024/03/12 09:25:45;;;;;;;26.55;17.52;;;;;;;;;;4981667;28;20184;-82
2024/03/12 09:28:11;;;;;;;33.15;18.38;;;;;;;;;;4960057;28;20235;-83
2024/03/12 09:30:37;;;;;;;32.88;18.80;;;;;;;;;;4976894;28;20271;-83
2024/03/12 09:33:04;;;;;;;31.45;18.98;;;;;;;;;;4975409;28;20219;-82
2024/03/12 09:35:30;;;;;;;33.75;18.17;;;;;;;;;;4969417;28;20634;-81
2024/03/12 09:37:56;;;;;;;28.13;18.10;;;;;;;;;;4984542;28;20263;-81
2024/03/12 09:40:22;;;;;;;35.10;19.15;;;;;;;;;;4978850;28;20433;-82
2024/03/12 09:42:48;;;;;;;29.13;17.83;;;;;;;;;;4995898;28;20566;-82
2024/03/12 09:45:14;;;;;;;34.28;20.40;;;;;;;;;;4995474;28;20416;-82
2024/03/12 09:47:42;;;;;;;28.13;17.43;;;;;;;;;;4994846;28;20242;-81
2024/03/12 09:50:11;;;;;;;36.80;20.17;;;;;;;;;;4994187;28;20421;-82
2024/03/12 09:52:38;;;;;;;36.95;21.13;;;;;;;;;;4984699;28;20658;-81
2024/03/12 09:55:07;;;;;;;31.92;19.90;;;;;;;;;;4976274;28;20176;-81
2024/03/12 09:57:33;;;;;;;33.55;18.63;;;;;;;;;;4959210;28;20195;-82
2024/03/12 09:59:59;;;;;;;34.33;19.70;;;;;;;;;;4959650;28;20245;-81
2024/03/12 10:02:25;;;;;;;28.33;19.07;;;;;;;;;;4976462;28;20191;-81
2024/03/12 10:04:51;;;;;;;35.40;20.30;;;;;;;;;;4978025;28;20929;-79
2024/03/12 10:07:17;;;;;;;31.50;19.73;;;;;;;;;;4980841;28;20459;-81
2024/03/12 10:09:43;;;;;;;28.35;18.17;;;;;;;;;;4981570;28;20419;-81
2024/03/12 10:12:09;;;;;;;32.08;18.08;;;;;;;;;;4980498;28;20180;-81
2024/03/12 10:14:35;;;;;;;31.85;19.48;;;;;;;;;;4980617;28;20584;-81
2024/03/12 10:17:14;;;;;;;31.70;19.80;;;;;;;;;;4980538;28;20188;-81
2024/03/12 10:19:41;;;;;;;33.40;19.63;;;;;;;;;;4974209;28;20184;-81
2024/03/12 10:22:11;;;;;;;33.78;20.08;;;;;;;;;;4961306;29;20298;-81
2024/03/12 10:24:38;;;;;;;31.75;19.80;;;;;;;;;;4961498;29;20173;-81
2024/03/12 10:27:05;;;;;;;34.72;19.75;;;;;;;;;;4961300;29;20208;-81
2024/03/12 10:29:35;;;;;;;30.73;18.13;;;;;;;;;;4960852;29;20173;-82
2024/03/12 10:32:16;;;;;;;37.28;22.20;;;;;;;;;;4959683;29;20664;-81
2024/03/12 10:34:42;;;;;;;30.05;20.13;;;;;;;;;;4959714;29;20232;-80
2024/03/12 10:37:24;;;;;;;31.00;20.13;;;;;;;;;;4960432;29;20188;-82
2024/03/12 10:39:50;;;;;;;33.70;19.35;;;;;;;;;;4961753;29;20174;-81
2024/03/12 10:42:21;;;;;;;36.40;21.35;;;;;;;;;;4967686;28;20220;-79
2024/03/12 10:44:48;;;;;;;33.75;17.38;;;;;;;;;;4980133;28;20644;-79
2024/03/12 10:47:14;;;;;;;39.63;21.33;;;;;;;;;;4975297;28;20211;-80
2024/03/12 10:49:43;;;;;;;34.22;17.55;;;;;;;;;;4960918;29;20196;-82
2024/03/12 10:52:10;;;;;;;30.50;20.10;;;;;;;;;;4960934;29;20169;-81
2024/03/12 10:54:36;;;;;;;30.27;17.48;;;;;;;;;;4960417;29;20176;-82
2024/03/12 10:57:03;;;;;;;37.78;24.67;;;;;;;;;;4960577;29;20200;-81
2024/03/12 10:59:31;;;;;;;33.05;21.42;;;;;;;;;;4960928;29;20191;-81
2024/03/12 11:01:58;;;;;;;29.80;19.80;;;;;;;;;;4960739;29;20733;-81
2024/03/12 11:04:24;;;;;;;30.27;19.40;;;;;;;;;;4960329;29;20252;-82
2024/03/12 11:06:52;;;;;;;33.78;19.30;;;;;;;;;;4960710;29;20243;-82
2024/03/12 11:09:21;;;;;;;28.88;19.48;;;;;;;;;;4960371;29;20188;-81
2024/03/12 11:11:49;;;;;;;35.05;21.23;;;;;;;;;;4960537;29;20192;-82
2024/03/12 11:14:15;;;;;;;40.03;22.48;;;;;;;;;;4960404;29;20173;-82
2024/03/12 11:16:42;;;;;;;29.95;18.85;;;;;;;;;;4959207;28;20185;-82
2024/03/12 11:19:18;;;;;;;29.48;19.17;;;;;;;;;;4960571;28;20592;-81
2024/03/12 11:21:47;;;;;;;27.70;18.35;;;;;;;;;;4979643;28;20258;-81
2024/03/12 11:24:13;;;;;;;32.83;19.30;;;;;;;;;;4979428;28;20175;-82
2024/03/12 11:26:41;;;;;;;32.10;21.42;;;;;;;;;;4979190;28;20226;-81
2024/03/12 11:29:07;;;;;;;32.70;20.13;;;;;;;;;;4979165;28;20601;-81
2024/03/12 11:31:37;;;;;;;28.90;19.75;;;;;;;;;;4979486;28;20168;-82
2024/03/12 11:34:03;;;;;;;32.40;19.65;;;;;;;;;;4979284;28;20324;-81
2024/03/12 11:36:29;;;;;;;28.83;19.60;;;;;;;;;;4979725;28;20204;-81
2024/03/12 11:38:57;;;;;;;34.20;20.30;;;;;;;;;;4979229;28;20400;-82
2024/03/12 11:41:25;;;;;;;30.75;18.88;;;;;;;;;;4967047;28;20189;-81
2024/03/12 11:43:51;;;;;;;31.80;18.98;;;;;;;;;;4959876;29;20209;-81
2024/03/12 11:46:21;;;;;;;31.77;18.75;;;;;;;;;;4959598;29;20213;-81
2024/03/12 11:48:48;;;;;;;30.45;18.63;;;;;;;;;;4959664;29;20209;-82
2024/03/12 11:51:14;;;;;;;28.08;18.95;;;;;;;;;;4960180;29;20180;-81
2024/03/12 11:53:45;;;;;;;25.77;17.42;;;;;;;;;;4959564;29;20637;-81
2024/03/12 11:56:15;;;;;;;28.50;17.90;;;;;;;;;;4959960;29;20184;-81
2024/03/12 11:58:46;;;;;;;30.08;18.88;;;;;;;;;;4959639;29;20192;-81
2024/03/12 12:01:20;;;;;;;27.95;18.73;;;;;;;;;;4959752;28;20637;-82
2024/03/12 12:04:07;;;;;;;27.77;18.05;;;;;;;;;;4971735;28;20195;-81
2024/03/12 12:06:33;;;;;;;28.40;19.08;;;;;;;;;;4959582;29;20177;-81
2024/03/12 12:09:06;;;;;;;31.42;18.63;;;;;;;;;;4958763;29;20212;-80
2024/03/12 12:11:36;;;;;;;33.97;22.15;;;;;;;;;;4957995;29;20525;-81
2024/03/12 12:14:05;;;;;;;33.42;19.52;;;;;;;;;;4958631;29;20189;-79
2024/03/12 12:16:31;;;;;;;32.17;18.25;;;;;;;;;;4959290;29;20260;-82
2024/03/12 12:19:20;;;;;;;29.48;18.33;;;;;;;;;;4958859;29;20255;-81
2024/03/12 12:21:46;;;;;;;37.25;20.10;;;;;;;;;;4958929;29;20157;-81
2024/03/12 12:24:13;;;;;;;34.63;20.20;;;;;;;;;;4958755;29;20188;-81
2024/03/12 12:26:39;;;;;;;29.83;19.80;;;;;;;;;;4957891;29;20479;-81
2024/03/12 12:29:07;;;;;;;29.75;19.02;;;;;;;;;;4958684;28;20185;-80
2024/03/12 12:31:39;;;;;;;34.70;18.30;;;;;;;;;;4958637;29;20260;-80
2024/03/12 12:34:05;;;;;;;30.42;18.83;;;;;;;;;;4959112;29;20293;-79
2024/03/12 12:36:32;;;;;;;33.45;19.20;;;;;;;;;;4958745;29;20184;-80
2024/03/12 12:39:01;;;;;;;28.33;17.83;;;;;;;;;;4972314;28;20640;-79
2024/03/12 12:41:34;;;;;;;29.02;18.15;;;;;;;;;;4961221;28;20188;-80
2024/03/12 12:44:03;;;;;;;30.33;18.27;;;;;;;;;;4977759;28;20520;-79
2024/03/12 12:46:29;;;;;;;28.92;18.83;;;;;;;;;;4978249;28;20184;-79
2024/03/12 12:48:55;;;;;;;34.97;20.27;;;;;;;;;;4978170;28;20230;-79
2024/03/12 12:51:24;;;;;;;32.40;17.90;;;;;;;;;;4977820;28;20606;-79
2024/03/12 12:53:55;;;;;;;29.38;17.92;;;;;;;;;;4977620;28;20173;-79
2024/03/12 12:56:22;;;;;;;27.95;17.88;;;;;;;;;;4977916;28;20254;-79
2024/03/12 12:58:51;;;;;;;32.03;19.60;;;;;;;;;;4977784;28;20179;-80
2024/03/12 13:01:24;;;;;;;30.90;16.25;;;;;;;;;;4977434;28;20224;-80
2024/03/12 13:03:53;;;;;;;39.75;19.73;;;;;;;;;;4977941;28;20184;-78
2024/03/12 13:06:23;;;;;;;25.83;16.40;;;;;;;;;;4977437;28;20181;-79
2024/03/12 13:08:52;;;;;;;31.20;19.50;;;;;;;;;;4978032;28;20204;-79
2024/03/12 13:11:25;;;;;;;30.33;18.45;;;;;;;;;;4977806;28;20184;-79
2024/03/12 13:13:51;;;;;;;30.58;18.90;;;;;;;;;;4977482;28;20176;-80
2024/03/12 13:16:18;;;;;;;32.75;19.70;;;;;;;;;;4977482;28;20636;-80
2024/03/12 13:18:45;;;;;;;30.13;21.10;;;;;;;;;;4977718;28;20330;-81
2024/03/12 13:21:15;;;;;;;31.00;19.10;;;;;;;;;;4976448;28;20236;-80
2024/03/12 13:23:44;;;;;;;32.25;19.70;;;;;;;;;;4959870;28;20244;-79
2024/03/12 13:26:12;;;;;;;28.88;19.30;;;;;;;;;;4976837;28;20200;-79
2024/03/12 13:28:39;;;;;;;35.90;17.70;;;;;;;;;;4977055;28;20673;-79
2024/03/12 13:31:05;;;;;;;26.55;16.23;;;;;;;;;;4975511;28;20709;-79
2024/03/12 13:33:31;;;;;;;26.70;17.88;;;;;;;;;;4977022;28;20232;-82
2024/03/12 13:35:59;;;;;;;30.63;19.03;;;;;;;;;;4977382;28;20179;-79
2024/03/12 13:38:26;;;;;;;31.40;18.65;;;;;;;;;;4977338;28;20814;-79
2024/03/12 13:40:55;;;;;;;30.85;17.52;;;;;;;;;;4976011;28;20258;-79
2024/03/12 13:43:22;;;;;;;31.25;19.77;;;;;;;;;;4976057;28;20188;-80
2024/03/12 13:45:48;;;;;;;32.08;18.80;;;;;;;;;;4975761;28;20716;-82
2024/03/12 13:48:14;;;;;;;33.83;20.33;;;;;;;;;;4976039;28;20739;-80
2024/03/12 13:50:43;;;;;;;36.35;19.83;;;;;;;;;;4976902;28;20235;-79
2024/03/12 13:53:10;;;;;;;32.92;19.17;;;;;;;;;;4976804;28;20531;-79
2024/03/12 13:55:36;;;;;;;32.55;20.42;;;;;;;;;;4959985;28;20227;-79
2024/03/12 13:58:03;;;;;;;30.33;18.30;;;;;;;;;;4958058;29;20588;-79
2024/03/12 14:00:31;;;;;;;33.67;19.65;;;;;;;;;;4967850;28;20423;-79
2024/03/12 14:02:58;;;;;;;33.60;19.52;;;;;;;;;;4957516;29;20283;-78
2024/03/12 14:05:24;;;;;;;33.08;18.67;;;;;;;;;;4956796;29;20574;-80
2024/03/12 14:07:50;;;;;;;35.78;18.42;;;;;;;;;;4957169;29;20237;-81
2024/03/12 14:10:18;;;;;;;30.15;18.42;;;;;;;;;;4957369;29;20636;-81
2024/03/12 14:12:45;;;;;;;29.52;18.92;;;;;;;;;;4956925;29;20236;-81
2024/03/12 14:15:11;;;;;;;33.70;20.13;;;;;;;;;;4969969;28;20192;-80
2024/03/12 14:17:38;;;;;;;36.65;21.02;;;;;;;;;;4976528;28;20180;-81
2024/03/12 14:20:17;;;;;;;32.38;19.30;;;;;;;;;;4976586;28;20200;-81
2024/03/12 14:22:43;;;;;;;31.88;18.42;;;;;;;;;;4976876;28;20715;-81
2024/03/12 14:25:11;;;;;;;33.60;17.88;;;;;;;;;;4976454;28;20176;-80
2024/03/12 14:27:37;;;;;;;31.25;19.88;;;;;;;;;;4976989;28;20624;-81
2024/03/12 14:30:03;;;;;;;41.15;20.95;;;;;;;;;;4975972;28;20191;-81
2024/03/12 14:32:29;;;;;;;29.83;18.50;;;;;;;;;;4975838;28;20236;-82